sensor_id;sensor_type;location;lat;lon;timestamp;P1;durP1;ratioP1;P2;durP2;ratioP2
35522;SDS011;61478;50.820;4.330;2023-03-29T00:00:40;6.88;;;3.78;;
35522;SDS011;61478;50.820;4.330;2023-03-29T00:03:06;7.18;;;3.35;;
35522;SDS011;61478;50.820;4.330;2023-03-29T00:05:33;8.95;;;4.03;;
35522;SDS011;61478;50.820;4.330;2023-03-29T00:07:59;7.28;;;3.53;;
35522;SDS011;61478;50.820;4.330;2023-03-29T00:10:29;7.25;;;4.15;;
35522;SDS011;61478;50.820;4.330;2023-03-29T00:12:56;8.52;;;4.07;;
35522;SDS011;61478;50.820;4.330;2023-03-29T00:15:22;10.35;;;4.40;;
35522;SDS011;61478;50.820;4.330;2023-03-29T00:17:48;8.20;;;4.68;;
35522;SDS011;61478;50.820;4.330;2023-03-29T00:20:15;10.18;;;4.90;;
35522;SDS011;61478;50.820;4.330;2023-03-29T00:22:41;8.32;;;5.22;;
35522;SDS011;61478;50.820;4.330;2023-03-29T00:25:09;14.40;;;5.10;;
35522;SDS011;61478;50.820;4.330;2023-03-29T00:27:36;9.70;;;5.22;;
35522;SDS011;61478;50.820;4.330;2023-03-29T00:30:03;11.57;;;6.07;;
35522;SDS011;61478;50.820;4.330;2023-03-29T00:32:32;12.07;;;5.80;;
35522;SDS011;61478;50.820;4.330;2023-03-29T00:34:58;11.63;;;6.90;;
35522;SDS011;61478;50.820;4.330;2023-03-29T00:37:30;11.30;;;5.97;;
35522;SDS011;61478;50.820;4.330;2023-03-29T00:39:56;9.30;;;5.53;;
35522;SDS011;61478;50.820;4.330;2023-03-29T00:42:22;11.52;;;6.65;;
35522;SDS011;61478;50.820;4.330;2023-03-29T00:47:45;10.85;;;6.03;;
35522;SDS011;61478;50.820;4.330;2023-03-29T00:50:26;11.35;;;6.75;;
35522;SDS011;61478;50.820;4.330;2023-03-29T00:53:42;15.98;;;6.82;;
35522;SDS011;61478;50.820;4.330;2023-03-29T00:58:23;15.45;;;8.15;;
35522;SDS011;61478;50.820;4.330;2023-03-29T01:00:59;12.15;;;6.75;;
35522;SDS011;61478;50.820;4.330;2023-03-29T01:03:30;12.85;;;6.40;;
35522;SDS011;61478;50.820;4.330;2023-03-29T01:06:19;19.17;;;7.57;;
35522;SDS011;61478;50.820;4.330;2023-03-29T01:08:54;11.82;;;6.80;;
35522;SDS011;61478;50.820;4.330;2023-03-29T01:11:29;11.85;;;6.35;;
35522;SDS011;61478;50.820;4.330;2023-03-29T01:14:13;9.68;;;5.38;;
35522;SDS011;61478;50.820;4.330;2023-03-29T01:16:47;12.18;;;6.25;;
35522;SDS011;61478;50.820;4.330;2023-03-29T01:19:14;10.85;;;5.45;;
35522;SDS011;61478;50.820;4.330;2023-03-29T01:24:29;13.63;;;6.13;;
35522;SDS011;61478;50.820;4.330;2023-03-29T01:27:19;16.50;;;7.18;;
35522;SDS011;61478;50.820;4.330;2023-03-29T01:30:12;10.90;;;5.78;;
35522;SDS011;61478;50.820;4.330;2023-03-29T01:32:49;11.25;;;5.93;;
35522;SDS011;61478;50.820;4.330;2023-03-29T01:35:26;10.75;;;5.57;;
35522;SDS011;61478;50.820;4.330;2023-03-29T01:38:01;8.93;;;5.40;;
35522;SDS011;61478;50.820;4.330;2023-03-29T01:40:34;10.43;;;6.13;;
35522;SDS011;61478;50.820;4.330;2023-03-29T01:45:40;9.18;;;5.20;;
35522;SDS011;61478;50.820;4.330;2023-03-29T01:50:57;11.77;;;5.10;;
35522;SDS011;61478;50.820;4.330;2023-03-29T01:53:35;10.48;;;4.90;;
35522;SDS011;61478;50.820;4.330;2023-03-29T01:56:03;12.52;;;5.03;;
35522;SDS011;61478;50.820;4.330;2023-03-29T01:58:40;10.05;;;5.03;;
35522;SDS011;61478;50.820;4.330;2023-03-29T02:01:10;10.80;;;5.78;;
35522;SDS011;61478;50.820;4.330;2023-03-29T02:03:42;12.13;;;5.50;;
35522;SDS011;61478;50.820;4.330;2023-03-29T02:06:14;9.10;;;5.07;;
35522;SDS011;61478;50.820;4.330;2023-03-29T02:08:45;11.30;;;4.75;;
35522;SDS011;61478;50.820;4.330;2023-03-29T02:11:12;14.15;;;6.05;;
35522;SDS011;61478;50.820;4.330;2023-03-29T02:13:38;9.30;;;5.40;;
35522;SDS011;61478;50.820;4.330;2023-03-29T02:16:07;10.80;;;5.22;;
35522;SDS011;61478;50.820;4.330;2023-03-29T02:18:36;9.20;;;5.20;;
35522;SDS011;61478;50.820;4.330;2023-03-29T02:21:04;11.05;;;6.30;;
35522;SDS011;61478;50.820;4.330;2023-03-29T02:23:39;14.35;;;5.25;;
35522;SDS011;61478;50.820;4.330;2023-03-29T02:26:11;11.40;;;5.20;;
35522;SDS011;61478;50.820;4.330;2023-03-29T02:28:39;9.40;;;4.97;;
35522;SDS011;61478;50.820;4.330;2023-03-29T02:34:15;12.02;;;5.72;;
35522;SDS011;61478;50.820;4.330;2023-03-29T02:36:59;11.32;;;5.68;;
35522;SDS011;61478;50.820;4.330;2023-03-29T02:39:31;13.27;;;6.15;;
35522;SDS011;61478;50.820;4.330;2023-03-29T02:41:58;13.05;;;5.82;;
35522;SDS011;61478;50.820;4.330;2023-03-29T02:44:26;12.35;;;6.30;;
35522;SDS011;61478;50.820;4.330;2023-03-29T02:47:00;13.10;;;7.25;;
35522;SDS011;61478;50.820;4.330;2023-03-29T02:49:30;13.57;;;6.68;;
35522;SDS011;61478;50.820;4.330;2023-03-29T02:51:58;12.85;;;6.63;;
35522;SDS011;61478;50.820;4.330;2023-03-29T02:54:31;16.52;;;6.90;;
35522;SDS011;61478;50.820;4.330;2023-03-29T02:56:59;12.13;;;6.70;;
35522;SDS011;61478;50.820;4.330;2023-03-29T02:59:30;15.07;;;7.00;;
35522;SDS011;61478;50.820;4.330;2023-03-29T03:01:57;10.13;;;6.63;;
35522;SDS011;61478;50.820;4.330;2023-03-29T03:04:24;11.35;;;5.88;;
35522;SDS011;61478;50.820;4.330;2023-03-29T03:06:50;11.80;;;7.20;;
35522;SDS011;61478;50.820;4.330;2023-03-29T03:09:17;12.27;;;6.45;;
35522;SDS011;61478;50.820;4.330;2023-03-29T03:11:43;14.13;;;6.05;;
35522;SDS011;61478;50.820;4.330;2023-03-29T03:14:09;9.55;;;5.68;;
35522;SDS011;61478;50.820;4.330;2023-03-29T03:16:35;11.43;;;6.60;;
35522;SDS011;61478;50.820;4.330;2023-03-29T03:19:02;13.85;;;6.50;;
35522;SDS011;61478;50.820;4.330;2023-03-29T03:21:28;12.98;;;7.38;;
35522;SDS011;61478;50.820;4.330;2023-03-29T03:23:55;13.95;;;6.93;;
35522;SDS011;61478;50.820;4.330;2023-03-29T03:26:21;11.00;;;6.57;;
35522;SDS011;61478;50.820;4.330;2023-03-29T03:28:51;16.63;;;6.97;;
35522;SDS011;61478;50.820;4.330;2023-03-29T03:31:16;13.90;;;6.70;;
35522;SDS011;61478;50.820;4.330;2023-03-29T03:33:44;11.93;;;7.30;;
35522;SDS011;61478;50.820;4.330;2023-03-29T03:36:10;14.60;;;6.93;;
35522;SDS011;61478;50.820;4.330;2023-03-29T03:38:36;13.90;;;7.93;;
35522;SDS011;61478;50.820;4.330;2023-03-29T03:41:02;17.17;;;7.53;;
35522;SDS011;61478;50.820;4.330;2023-03-29T03:43:29;12.95;;;7.68;;
35522;SDS011;61478;50.820;4.330;2023-03-29T03:45:55;16.10;;;7.35;;
35522;SDS011;61478;50.820;4.330;2023-03-29T03:48:22;13.00;;;7.13;;
35522;SDS011;61478;50.820;4.330;2023-03-29T03:50:49;17.63;;;7.75;;
35522;SDS011;61478;50.820;4.330;2023-03-29T03:53:17;18.77;;;7.15;;
35522;SDS011;61478;50.820;4.330;2023-03-29T03:55:47;15.20;;;7.28;;
35522;SDS011;61478;50.820;4.330;2023-03-29T03:58:17;16.50;;;7.53;;
35522;SDS011;61478;50.820;4.330;2023-03-29T04:00:46;13.40;;;6.93;;
35522;SDS011;61478;50.820;4.330;2023-03-29T04:03:12;13.38;;;6.95;;
35522;SDS011;61478;50.820;4.330;2023-03-29T04:05:39;17.50;;;11.90;;
35522;SDS011;61478;50.820;4.330;2023-03-29T04:08:05;13.23;;;6.47;;
35522;SDS011;61478;50.820;4.330;2023-03-29T04:10:32;13.35;;;7.18;;
35522;SDS011;61478;50.820;4.330;2023-03-29T04:12:59;13.75;;;6.63;;
35522;SDS011;61478;50.820;4.330;2023-03-29T04:15:26;15.07;;;6.75;;
35522;SDS011;61478;50.820;4.330;2023-03-29T04:17:54;15.13;;;6.32;;
35522;SDS011;61478;50.820;4.330;2023-03-29T04:20:20;12.68;;;6.30;;
35522;SDS011;61478;50.820;4.330;2023-03-29T04:22:46;10.52;;;5.57;;
35522;SDS011;61478;50.820;4.330;2023-03-29T04:25:12;12.50;;;6.20;;
35522;SDS011;61478;50.820;4.330;2023-03-29T04:27:39;11.98;;;6.88;;
35522;SDS011;61478;50.820;4.330;2023-03-29T04:30:05;14.02;;;5.70;;
35522;SDS011;61478;50.820;4.330;2023-03-29T04:32:32;13.43;;;6.30;;
35522;SDS011;61478;50.820;4.330;2023-03-29T04:34:58;17.48;;;7.18;;
35522;SDS011;61478;50.820;4.330;2023-03-29T04:37:23;12.60;;;7.18;;
35522;SDS011;61478;50.820;4.330;2023-03-29T04:39:49;16.63;;;8.02;;
35522;SDS011;61478;50.820;4.330;2023-03-29T04:42:16;15.02;;;7.45;;
35522;SDS011;61478;50.820;4.330;2023-03-29T04:44:43;14.90;;;7.45;;
35522;SDS011;61478;50.820;4.330;2023-03-29T04:47:09;13.40;;;7.38;;
35522;SDS011;61478;50.820;4.330;2023-03-29T04:49:39;18.60;;;8.55;;
35522;SDS011;61478;50.820;4.330;2023-03-29T04:52:06;13.48;;;7.78;;
35522;SDS011;61478;50.820;4.330;2023-03-29T04:54:32;13.48;;;7.82;;
35522;SDS011;61478;50.820;4.330;2023-03-29T04:56:58;17.63;;;8.15;;
35522;SDS011;61478;50.820;4.330;2023-03-29T04:59:24;18.33;;;7.63;;
35522;SDS011;61478;50.820;4.330;2023-03-29T05:01:50;20.83;;;9.13;;
35522;SDS011;61478;50.820;4.330;2023-03-29T05:04:16;21.25;;;8.23;;
35522;SDS011;61478;50.820;4.330;2023-03-29T05:06:42;14.85;;;7.85;;
35522;SDS011;61478;50.820;4.330;2023-03-29T05:09:08;14.63;;;7.90;;
35522;SDS011;61478;50.820;4.330;2023-03-29T05:11:34;16.67;;;7.72;;
35522;SDS011;61478;50.820;4.330;2023-03-29T05:14:01;22.65;;;7.20;;
35522;SDS011;61478;50.820;4.330;2023-03-29T05:16:27;17.85;;;8.20;;
35522;SDS011;61478;50.820;4.330;2023-03-29T05:18:57;17.85;;;8.40;;
35522;SDS011;61478;50.820;4.330;2023-03-29T05:21:23;14.77;;;7.95;;
35522;SDS011;61478;50.820;4.330;2023-03-29T05:23:50;19.88;;;8.73;;
35522;SDS011;61478;50.820;4.330;2023-03-29T05:26:17;15.65;;;7.38;;
35522;SDS011;61478;50.820;4.330;2023-03-29T05:28:42;17.90;;;7.93;;
35522;SDS011;61478;50.820;4.330;2023-03-29T05:31:09;15.82;;;7.75;;
35522;SDS011;61478;50.820;4.330;2023-03-29T05:33:35;13.40;;;7.53;;
35522;SDS011;61478;50.820;4.330;2023-03-29T05:36:12;15.65;;;7.93;;
35522;SDS011;61478;50.820;4.330;2023-03-29T05:38:40;15.60;;;7.05;;
35522;SDS011;61478;50.820;4.330;2023-03-29T05:41:09;20.00;;;7.22;;
35522;SDS011;61478;50.820;4.330;2023-03-29T05:43:35;21.02;;;8.60;;
35522;SDS011;61478;50.820;4.330;2023-03-29T05:46:01;16.75;;;7.43;;
35522;SDS011;61478;50.820;4.330;2023-03-29T05:48:27;14.70;;;8.18;;
35522;SDS011;61478;50.820;4.330;2023-03-29T05:50:54;16.77;;;7.63;;
35522;SDS011;61478;50.820;4.330;2023-03-29T05:53:21;14.15;;;8.30;;
35522;SDS011;61478;50.820;4.330;2023-03-29T05:55:48;12.35;;;7.05;;
35522;SDS011;61478;50.820;4.330;2023-03-29T05:58:15;23.25;;;7.55;;
35522;SDS011;61478;50.820;4.330;2023-03-29T06:00:43;15.15;;;7.70;;
35522;SDS011;61478;50.820;4.330;2023-03-29T06:03:13;16.95;;;8.15;;
35522;SDS011;61478;50.820;4.330;2023-03-29T06:05:44;18.33;;;8.25;;
35522;SDS011;61478;50.820;4.330;2023-03-29T06:08:12;12.23;;;7.30;;
35522;SDS011;61478;50.820;4.330;2023-03-29T06:10:39;13.90;;;7.80;;
35522;SDS011;61478;50.820;4.330;2023-03-29T06:13:06;30.02;;;8.52;;
35522;SDS011;61478;50.820;4.330;2023-03-29T06:15:31;21.65;;;7.95;;
35522;SDS011;61478;50.820;4.330;2023-03-29T06:17:59;14.38;;;7.47;;
35522;SDS011;61478;50.820;4.330;2023-03-29T06:20:26;12.05;;;6.63;;
35522;SDS011;61478;50.820;4.330;2023-03-29T06:22:52;16.55;;;7.38;;
35522;SDS011;61478;50.820;4.330;2023-03-29T06:25:18;13.02;;;7.03;;
35522;SDS011;61478;50.820;4.330;2023-03-29T06:27:44;17.33;;;7.47;;
35522;SDS011;61478;50.820;4.330;2023-03-29T06:30:11;18.75;;;7.07;;
35522;SDS011;61478;50.820;4.330;2023-03-29T06:32:39;14.55;;;6.90;;
35522;SDS011;61478;50.820;4.330;2023-03-29T06:35:06;13.32;;;7.03;;
35522;SDS011;61478;50.820;4.330;2023-03-29T06:37:35;12.82;;;6.88;;
35522;SDS011;61478;50.820;4.330;2023-03-29T06:40:04;18.25;;;6.95;;
35522;SDS011;61478;50.820;4.330;2023-03-29T06:42:31;15.27;;;6.90;;
35522;SDS011;61478;50.820;4.330;2023-03-29T06:44:57;16.52;;;8.15;;
35522;SDS011;61478;50.820;4.330;2023-03-29T06:47:23;13.85;;;8.48;;
35522;SDS011;61478;50.820;4.330;2023-03-29T06:49:54;43.83;;;19.63;;
35522;SDS011;61478;50.820;4.330;2023-03-29T06:52:21;24.63;;;11.43;;
35522;SDS011;61478;50.820;4.330;2023-03-29T06:54:47;16.73;;;8.05;;
35522;SDS011;61478;50.820;4.330;2023-03-29T06:57:13;16.02;;;7.30;;
35522;SDS011;61478;50.820;4.330;2023-03-29T06:59:39;18.40;;;7.63;;
35522;SDS011;61478;50.820;4.330;2023-03-29T07:02:08;16.10;;;6.72;;
35522;SDS011;61478;50.820;4.330;2023-03-29T07:04:36;14.73;;;6.85;;
35522;SDS011;61478;50.820;4.330;2023-03-29T07:07:02;10.65;;;6.03;;
35522;SDS011;61478;50.820;4.330;2023-03-29T07:09:31;9.20;;;5.50;;
35522;SDS011;61478;50.820;4.330;2023-03-29T07:11:58;18.15;;;5.82;;
35522;SDS011;61478;50.820;4.330;2023-03-29T07:14:25;12.48;;;5.15;;
35522;SDS011;61478;50.820;4.330;2023-03-29T07:16:54;14.30;;;5.88;;
35522;SDS011;61478;50.820;4.330;2023-03-29T07:19:20;18.95;;;5.85;;
35522;SDS011;61478;50.820;4.330;2023-03-29T07:21:48;12.15;;;4.65;;
35522;SDS011;61478;50.820;4.330;2023-03-29T07:24:18;7.70;;;4.53;;
35522;SDS011;61478;50.820;4.330;2023-03-29T07:26:45;12.52;;;5.78;;
35522;SDS011;61478;50.820;4.330;2023-03-29T07:29:12;15.63;;;6.22;;
35522;SDS011;61478;50.820;4.330;2023-03-29T07:31:39;8.90;;;5.05;;
35522;SDS011;61478;50.820;4.330;2023-03-29T07:34:06;13.82;;;5.85;;
35522;SDS011;61478;50.820;4.330;2023-03-29T07:36:37;12.40;;;5.05;;
35522;SDS011;61478;50.820;4.330;2023-03-29T07:39:04;11.25;;;4.93;;
35522;SDS011;61478;50.820;4.330;2023-03-29T07:41:31;13.68;;;5.20;;
35522;SDS011;61478;50.820;4.330;2023-03-29T07:43:57;10.50;;;4.57;;
35522;SDS011;61478;50.820;4.330;2023-03-29T07:46:29;9.25;;;4.53;;
35522;SDS011;61478;50.820;4.330;2023-03-29T07:48:55;8.57;;;4.40;;
35522;SDS011;61478;50.820;4.330;2023-03-29T07:51:21;10.52;;;4.68;;
35522;SDS011;61478;50.820;4.330;2023-03-29T07:53:48;9.88;;;4.88;;
35522;SDS011;61478;50.820;4.330;2023-03-29T07:56:14;11.65;;;5.15;;
35522;SDS011;61478;50.820;4.330;2023-03-29T07:58:40;13.23;;;4.90;;
35522;SDS011;61478;50.820;4.330;2023-03-29T08:01:06;10.45;;;4.93;;
35522;SDS011;61478;50.820;4.330;2023-03-29T08:03:32;9.65;;;5.07;;
35522;SDS011;61478;50.820;4.330;2023-03-29T08:06:02;11.18;;;5.10;;
35522;SDS011;61478;50.820;4.330;2023-03-29T08:08:28;10.38;;;4.57;;
35522;SDS011;61478;50.820;4.330;2023-03-29T08:10:54;16.92;;;5.38;;
35522;SDS011;61478;50.820;4.330;2023-03-29T08:13:20;9.88;;;4.90;;
35522;SDS011;61478;50.820;4.330;2023-03-29T08:15:46;14.13;;;5.18;;
35522;SDS011;61478;50.820;4.330;2023-03-29T08:18:12;10.45;;;5.15;;
35522;SDS011;61478;50.820;4.330;2023-03-29T08:20:39;12.90;;;5.60;;
35522;SDS011;61478;50.820;4.330;2023-03-29T08:23:04;10.75;;;5.35;;
35522;SDS011;61478;50.820;4.330;2023-03-29T08:25:30;10.32;;;5.13;;
35522;SDS011;61478;50.820;4.330;2023-03-29T08:27:56;8.57;;;4.35;;
35522;SDS011;61478;50.820;4.330;2023-03-29T08:30:23;11.18;;;4.60;;
35522;SDS011;61478;50.820;4.330;2023-03-29T08:32:49;11.63;;;5.25;;
35522;SDS011;61478;50.820;4.330;2023-03-29T08:35:15;13.45;;;5.43;;
35522;SDS011;61478;50.820;4.330;2023-03-29T08:37:41;13.82;;;5.47;;
35522;SDS011;61478;50.820;4.330;2023-03-29T08:40:09;13.75;;;5.85;;
35522;SDS011;61478;50.820;4.330;2023-03-29T08:48:03;12.07;;;5.68;;
35522;SDS011;61478;50.820;4.330;2023-03-29T08:50:37;15.70;;;4.93;;
35522;SDS011;61478;50.820;4.330;2023-03-29T08:53:11;11.18;;;5.18;;
35522;SDS011;61478;50.820;4.330;2023-03-29T08:55:44;13.57;;;5.38;;
35522;SDS011;61478;50.820;4.330;2023-03-29T08:58:16;15.30;;;5.53;;
35522;SDS011;61478;50.820;4.330;2023-03-29T09:00:49;9.15;;;5.43;;
35522;SDS011;61478;50.820;4.330;2023-03-29T09:03:29;8.88;;;4.68;;
35522;SDS011;61478;50.820;4.330;2023-03-29T09:08:33;10.82;;;5.15;;
35522;SDS011;61478;50.820;4.330;2023-03-29T09:11:16;12.63;;;5.40;;
35522;SDS011;61478;50.820;4.330;2023-03-29T09:16:33;7.95;;;4.97;;
35522;SDS011;61478;50.820;4.330;2023-03-29T09:24:36;17.45;;;5.70;;
35522;SDS011;61478;50.820;4.330;2023-03-29T09:27:20;9.43;;;5.28;;
35522;SDS011;61478;50.820;4.330;2023-03-29T09:29:55;12.82;;;5.10;;
35522;SDS011;61478;50.820;4.330;2023-03-29T09:32:53;13.43;;;5.35;;
35522;SDS011;61478;50.820;4.330;2023-03-29T09:37:56;9.48;;;5.25;;
35522;SDS011;61478;50.820;4.330;2023-03-29T09:40:23;11.75;;;5.28;;
35522;SDS011;61478;50.820;4.330;2023-03-29T09:42:54;7.50;;;5.07;;
35522;SDS011;61478;50.820;4.330;2023-03-29T09:45:22;12.30;;;5.38;;
35522;SDS011;61478;50.820;4.330;2023-03-29T09:50:41;8.93;;;5.05;;
35522;SDS011;61478;50.820;4.330;2023-03-29T09:53:12;14.05;;;5.15;;
35522;SDS011;61478;50.820;4.330;2023-03-29T09:55:39;14.27;;;5.55;;
35522;SDS011;61478;50.820;4.330;2023-03-29T09:58:14;11.27;;;5.40;;
35522;SDS011;61478;50.820;4.330;2023-03-29T10:00:42;13.68;;;5.55;;
35522;SDS011;61478;50.820;4.330;2023-03-29T10:03:09;14.63;;;5.47;;
35522;SDS011;61478;50.820;4.330;2023-03-29T10:05:46;28.20;;;6.25;;
35522;SDS011;61478;50.820;4.330;2023-03-29T10:08:19;14.27;;;5.25;;
35522;SDS011;61478;50.820;4.330;2023-03-29T10:10:51;8.52;;;4.45;;
35522;SDS011;61478;50.820;4.330;2023-03-29T10:13:32;15.75;;;5.93;;
35522;SDS011;61478;50.820;4.330;2023-03-29T10:16:01;11.23;;;5.15;;
35522;SDS011;61478;50.820;4.330;2023-03-29T10:18:32;17.13;;;5.10;;
35522;SDS011;61478;50.820;4.330;2023-03-29T10:21:03;10.55;;;4.82;;
35522;SDS011;61478;50.820;4.330;2023-03-29T10:23:34;19.67;;;5.35;;
35522;SDS011;61478;50.820;4.330;2023-03-29T10:26:03;15.77;;;4.72;;
35522;SDS011;61478;50.820;4.330;2023-03-29T10:28:34;13.68;;;4.68;;
35522;SDS011;61478;50.820;4.330;2023-03-29T10:31:03;8.07;;;4.60;;
35522;SDS011;61478;50.820;4.330;2023-03-29T10:33:32;13.20;;;4.13;;
35522;SDS011;61478;50.820;4.330;2023-03-29T10:36:01;9.32;;;4.43;;
35522;SDS011;61478;50.820;4.330;2023-03-29T10:38:31;13.40;;;4.63;;
35522;SDS011;61478;50.820;4.330;2023-03-29T10:41:05;9.38;;;4.70;;
35522;SDS011;61478;50.820;4.330;2023-03-29T10:43:35;16.33;;;7.05;;
35522;SDS011;61478;50.820;4.330;2023-03-29T10:46:11;7.82;;;5.22;;
35522;SDS011;61478;50.820;4.330;2023-03-29T10:48:48;8.70;;;4.18;;
35522;SDS011;61478;50.820;4.330;2023-03-29T10:51:16;13.85;;;4.65;;
35522;SDS011;61478;50.820;4.330;2023-03-29T10:53:43;9.65;;;4.45;;
35522;SDS011;61478;50.820;4.330;2023-03-29T10:56:17;9.27;;;4.50;;
35522;SDS011;61478;50.820;4.330;2023-03-29T10:59:00;11.48;;;4.68;;
35522;SDS011;61478;50.820;4.330;2023-03-29T11:01:41;11.07;;;4.25;;
35522;SDS011;61478;50.820;4.330;2023-03-29T11:04:36;10.10;;;4.72;;
35522;SDS011;61478;50.820;4.330;2023-03-29T11:13:02;11.38;;;5.50;;
35522;SDS011;61478;50.820;4.330;2023-03-29T11:29:45;7.32;;;4.30;;
35522;SDS011;61478;50.820;4.330;2023-03-29T11:32:40;11.07;;;4.72;;
35522;SDS011;61478;50.820;4.330;2023-03-29T11:40:49;6.07;;;3.03;;
35522;SDS011;61478;50.820;4.330;2023-03-29T11:43:32;5.25;;;3.03;;
35522;SDS011;61478;50.820;4.330;2023-03-29T11:46:14;6.05;;;3.33;;
35522;SDS011;61478;50.820;4.330;2023-03-29T11:48:46;7.85;;;3.17;;
35522;SDS011;61478;50.820;4.330;2023-03-29T11:51:29;9.25;;;3.78;;
35522;SDS011;61478;50.820;4.330;2023-03-29T11:54:02;13.65;;;6.32;;
35522;SDS011;61478;50.820;4.330;2023-03-29T11:56:46;11.68;;;3.83;;
35522;SDS011;61478;50.820;4.330;2023-03-29T11:59:25;8.68;;;3.78;;
35522;SDS011;61478;50.820;4.330;2023-03-29T12:05:09;4.65;;;3.35;;
35522;SDS011;61478;50.820;4.330;2023-03-29T12:07:44;11.80;;;3.58;;
35522;SDS011;61478;50.820;4.330;2023-03-29T12:12:45;7.72;;;3.95;;
35522;SDS011;61478;50.820;4.330;2023-03-29T12:15:21;7.05;;;4.10;;
35522;SDS011;61478;50.820;4.330;2023-03-29T12:20:31;7.70;;;4.05;;
35522;SDS011;61478;50.820;4.330;2023-03-29T12:23:04;7.22;;;3.92;;
35522;SDS011;61478;50.820;4.330;2023-03-29T12:28:17;12.00;;;4.03;;
35522;SDS011;61478;50.820;4.330;2023-03-29T12:39:26;14.55;;;4.43;;
35522;SDS011;61478;50.820;4.330;2023-03-29T12:42:16;5.40;;;3.20;;
35522;SDS011;61478;50.820;4.330;2023-03-29T12:44:44;11.10;;;4.43;;
35522;SDS011;61478;50.820;4.330;2023-03-29T12:47:19;7.60;;;3.92;;
35522;SDS011;61478;50.820;4.330;2023-03-29T12:49:57;9.52;;;3.90;;
35522;SDS011;61478;50.820;4.330;2023-03-29T12:52:26;11.15;;;4.05;;
35522;SDS011;61478;50.820;4.330;2023-03-29T12:55:00;9.68;;;4.00;;
35522;SDS011;61478;50.820;4.330;2023-03-29T12:58:19;4.75;;;3.17;;
35522;SDS011;61478;50.820;4.330;2023-03-29T13:00:45;5.07;;;2.85;;
35522;SDS011;61478;50.820;4.330;2023-03-29T13:05:57;11.25;;;3.45;;
35522;SDS011;61478;50.820;4.330;2023-03-29T13:08:26;5.68;;;2.58;;
35522;SDS011;61478;50.820;4.330;2023-03-29T13:11:30;10.98;;;3.40;;
35522;SDS011;61478;50.820;4.330;2023-03-29T13:14:10;4.93;;;2.83;;
35522;SDS011;61478;50.820;4.330;2023-03-29T13:16:40;6.82;;;2.70;;
35522;SDS011;61478;50.820;4.330;2023-03-29T13:22:01;5.20;;;2.70;;
35522;SDS011;61478;50.820;4.330;2023-03-29T13:27:50;8.30;;;2.95;;
35522;SDS011;61478;50.820;4.330;2023-03-29T13:33:10;8.32;;;2.90;;
35522;SDS011;61478;50.820;4.330;2023-03-29T13:38:21;8.77;;;3.08;;
35522;SDS011;61478;50.820;4.330;2023-03-29T13:40:56;11.52;;;3.42;;
35522;SDS011;61478;50.820;4.330;2023-03-29T13:43:31;9.32;;;3.15;;
35522;SDS011;61478;50.820;4.330;2023-03-29T13:46:21;15.27;;;3.97;;
35522;SDS011;61478;50.820;4.330;2023-03-29T13:49:03;8.48;;;3.20;;
35522;SDS011;61478;50.820;4.330;2023-03-29T13:51:39;18.30;;;4.32;;
35522;SDS011;61478;50.820;4.330;2023-03-29T13:54:25;8.00;;;3.70;;
35522;SDS011;61478;50.820;4.330;2023-03-29T13:56:57;11.82;;;5.10;;
35522;SDS011;61478;50.820;4.330;2023-03-29T13:59:38;6.85;;;3.65;;
35522;SDS011;61478;50.820;4.330;2023-03-29T14:02:24;9.23;;;3.47;;
35522;SDS011;61478;50.820;4.330;2023-03-29T14:04:56;9.38;;;3.70;;
35522;SDS011;61478;50.820;4.330;2023-03-29T14:07:26;12.43;;;3.40;;
35522;SDS011;61478;50.820;4.330;2023-03-29T14:09:54;8.77;;;3.30;;
35522;SDS011;61478;50.820;4.330;2023-03-29T14:12:28;4.95;;;3.17;;
35522;SDS011;61478;50.820;4.330;2023-03-29T14:15:02;7.22;;;3.63;;
35522;SDS011;61478;50.820;4.330;2023-03-29T14:17:30;9.57;;;3.17;;
35522;SDS011;61478;50.820;4.330;2023-03-29T14:19:57;4.65;;;2.40;;
35522;SDS011;61478;50.820;4.330;2023-03-29T14:22:28;10.13;;;3.63;;
35522;SDS011;61478;50.820;4.330;2023-03-29T14:24:59;9.30;;;3.03;;
35522;SDS011;61478;50.820;4.330;2023-03-29T14:27:29;11.38;;;3.35;;
35522;SDS011;61478;50.820;4.330;2023-03-29T14:29:56;9.05;;;2.55;;
35522;SDS011;61478;50.820;4.330;2023-03-29T14:32:27;9.23;;;3.22;;
35522;SDS011;61478;50.820;4.330;2023-03-29T14:34:54;8.55;;;3.05;;
35522;SDS011;61478;50.820;4.330;2023-03-29T14:37:21;8.77;;;3.88;;
35522;SDS011;61478;50.820;4.330;2023-03-29T14:39:49;7.10;;;3.35;;
35522;SDS011;61478;50.820;4.330;2023-03-29T14:42:19;8.25;;;3.65;;
35522;SDS011;61478;50.820;4.330;2023-03-29T14:44:48;21.15;;;4.25;;
35522;SDS011;61478;50.820;4.330;2023-03-29T14:47:28;8.40;;;3.00;;
35522;SDS011;61478;50.820;4.330;2023-03-29T14:49:55;6.45;;;3.28;;
35522;SDS011;61478;50.820;4.330;2023-03-29T14:52:25;8.98;;;4.40;;
35522;SDS011;61478;50.820;4.330;2023-03-29T14:54:53;9.38;;;4.35;;
35522;SDS011;61478;50.820;4.330;2023-03-29T14:57:22;7.43;;;3.22;;
35522;SDS011;61478;50.820;4.330;2023-03-29T15:00:03;10.52;;;3.80;;
35522;SDS011;61478;50.820;4.330;2023-03-29T15:02:58;6.97;;;3.75;;
35522;SDS011;61478;50.820;4.330;2023-03-29T15:07:54;6.75;;;3.53;;
35522;SDS011;61478;50.820;4.330;2023-03-29T15:10:20;9.32;;;3.80;;
35522;SDS011;61478;50.820;4.330;2023-03-29T15:12:46;9.10;;;3.95;;
35522;SDS011;61478;50.820;4.330;2023-03-29T15:15:13;10.85;;;4.00;;
35522;SDS011;61478;50.820;4.330;2023-03-29T15:17:40;7.30;;;3.88;;
35522;SDS011;61478;50.820;4.330;2023-03-29T15:20:17;10.48;;;4.43;;
35522;SDS011;61478;50.820;4.330;2023-03-29T15:23:16;14.57;;;4.25;;
35522;SDS011;61478;50.820;4.330;2023-03-29T15:25:56;8.35;;;3.65;;
35522;SDS011;61478;50.820;4.330;2023-03-29T15:31:16;6.15;;;3.05;;
35522;SDS011;61478;50.820;4.330;2023-03-29T15:33:43;8.15;;;3.83;;
35522;SDS011;61478;50.820;4.330;2023-03-29T15:36:11;10.32;;;3.63;;
35522;SDS011;61478;50.820;4.330;2023-03-29T15:38:38;7.50;;;3.38;;
35522;SDS011;61478;50.820;4.330;2023-03-29T15:41:06;11.38;;;3.95;;
35522;SDS011;61478;50.820;4.330;2023-03-29T15:43:32;8.43;;;3.92;;
35522;SDS011;61478;50.820;4.330;2023-03-29T15:45:58;6.75;;;2.70;;
35522;SDS011;61478;50.820;4.330;2023-03-29T15:48:25;6.75;;;3.00;;
35522;SDS011;61478;50.820;4.330;2023-03-29T15:50:52;10.55;;;3.50;;
35522;SDS011;61478;50.820;4.330;2023-03-29T15:53:19;9.27;;;3.35;;
35522;SDS011;61478;50.820;4.330;2023-03-29T15:55:50;11.05;;;5.68;;
35522;SDS011;61478;50.820;4.330;2023-03-29T15:58:18;8.45;;;3.72;;
35522;SDS011;61478;50.820;4.330;2023-03-29T16:00:50;10.70;;;5.18;;
35522;SDS011;61478;50.820;4.330;2023-03-29T16:03:38;9.80;;;4.43;;
35522;SDS011;61478;50.820;4.330;2023-03-29T16:06:04;27.05;;;16.33;;
35522;SDS011;61478;50.820;4.330;2023-03-29T16:08:34;6.88;;;3.83;;
35522;SDS011;61478;50.820;4.330;2023-03-29T16:10:59;12.45;;;3.70;;
35522;SDS011;61478;50.820;4.330;2023-03-29T16:13:25;16.60;;;4.60;;
35522;SDS011;61478;50.820;4.330;2023-03-29T16:15:52;11.85;;;3.47;;
35522;SDS011;61478;50.820;4.330;2023-03-29T16:18:18;8.27;;;3.20;;
35522;SDS011;61478;50.820;4.330;2023-03-29T16:20:43;8.48;;;3.45;;
35522;SDS011;61478;50.820;4.330;2023-03-29T16:23:10;7.22;;;3.17;;
35522;SDS011;61478;50.820;4.330;2023-03-29T16:25:37;11.82;;;3.30;;
35522;SDS011;61478;50.820;4.330;2023-03-29T16:28:05;12.60;;;3.65;;
35522;SDS011;61478;50.820;4.330;2023-03-29T16:30:32;12.48;;;3.13;;
35522;SDS011;61478;50.820;4.330;2023-03-29T16:32:59;10.25;;;3.10;;
35522;SDS011;61478;50.820;4.330;2023-03-29T16:35:31;12.75;;;3.28;;
35522;SDS011;61478;50.820;4.330;2023-03-29T16:37:58;11.88;;;3.42;;
35522;SDS011;61478;50.820;4.330;2023-03-29T16:40:24;10.55;;;2.58;;